Time;durP1;ratioP1;P1;durP2;ratioP2;P2;SDS_P1;SDS_P2;PMS_P1;PMS_P2;Temp;Humidity;BMP_temperature;BMP_pressure;BME280_temperature;BME280_humidity;BME280_pressure;Samples;Min_cycle;Max_cycle;Signal;HPM_P1;HPM_P2
2022/07/19 00:00:31;;;;;;;;;6.40;6.00;;;;;30.27;26.02;100919.97;5041071;28;45421;-68
2022/07/19 00:02:56;;;;;;;;;7.75;7.75;;;;;30.25;26.44;100913.84;5034868;28;45380;-67
2022/07/19 00:05:22;;;;;;;;;10.00;7.00;;;;;30.22;26.95;100923.34;5034291;28;45339;-67
2022/07/19 00:07:47;;;;;;;;;9.00;9.00;;;;;30.19;26.99;100912.75;5038145;28;45347;-68
2022/07/19 00:10:15;;;;;;;;;7.00;6.25;;;;;30.19;26.05;100917.38;5039158;28;45386;-67
2022/07/19 00:12:41;;;;;;;;;14.40;8.20;;;;;30.14;26.13;100911.69;5069419;28;45408;-68
2022/07/19 00:15:09;;;;;;;;;7.20;7.20;;;;;30.12;26.80;100908.31;5038557;28;45587;-64
2022/07/19 00:17:38;;;;;;;;;7.20;6.40;;;;;30.08;26.32;100910.63;5038651;28;45389;-65
2022/07/19 00:20:04;;;;;;;;;8.00;6.50;;;;;30.07;26.69;100908.91;5038494;28;45231;-65
2022/07/19 00:22:29;;;;;;;;;2.00;2.00;;;;;30.04;26.81;100905.72;5040369;28;45665;-65
2022/07/19 00:24:55;;;;;;;;;5.00;5.00;;;;;29.99;26.35;100906.34;5055247;28;45203;-66
2022/07/19 00:27:21;;;;;;;;;7.80;7.00;;;;;30.02;26.27;100905.06;5058554;28;45477;-66
2022/07/19 00:29:46;;;;;;;;;8.75;7.25;;;;;29.95;26.87;100894.09;5057697;28;45548;-65
2022/07/19 00:32:11;;;;;;;;;6.75;6.00;;;;;29.98;27.47;100898.31;5058015;28;46501;-68
2022/07/19 00:34:37;;;;;;;;;5.25;5.25;;;;;29.90;26.65;100888.38;5057384;28;45290;-66
2022/07/19 00:37:02;;;;;;;;;5.25;5.00;;;;;29.89;26.57;100893.00;5042826;28;45654;-63
2022/07/19 00:39:28;;;;;;;;;6.00;5.00;;;;;29.89;26.48;100895.75;5038181;28;45723;-64
2022/07/19 00:41:53;;;;;;;;;8.00;7.00;;;;;29.84;25.86;100887.31;5036752;28;46656;-66
2022/07/19 00:44:21;;;;;;;;;6.25;6.25;;;;;29.87;26.66;100908.81;5038682;28;45387;-66
2022/07/19 00:46:47;;;;;;;;;8.40;7.00;;;;;29.85;27.22;100905.44;5037518;28;45457;-65
2022/07/19 00:49:12;;;;;;;;;8.50;7.75;;;;;29.80;27.00;100901.59;5038536;28;45656;-67
2022/07/19 00:51:40;;;;;;;;;9.25;9.25;;;;;29.76;26.57;100884.72;5037725;28;45361;-67
2022/07/19 00:54:07;;;;;;;;;9.60;8.20;;;;;29.76;26.38;100895.69;5053151;28;45259;-65
2022/07/19 00:56:35;;;;;;;;;7.00;6.80;;;;;29.76;26.95;100897.59;5038022;28;45432;-67
2022/07/19 00:59:03;;;;;;;;;11.00;8.00;;;;;29.73;27.18;100896.09;5042883;28;45454;-66
2022/07/19 01:01:29;;;;;;;;;10.40;8.60;;;;;29.72;27.39;100893.56;5057706;28;45664;-67
2022/07/19 01:03:56;;;;;;;;;8.80;7.60;;;;;29.67;26.76;100892.25;5057613;28;45355;-68
2022/07/19 01:06:22;;;;;;;;;12.20;9.00;;;;;29.65;27.29;100894.38;5057776;28;45267;-69
2022/07/19 01:08:48;;;;;;;;;8.00;8.00;;;;;29.61;27.50;100892.25;5058072;28;45530;-67
2022/07/19 01:11:13;;;;;;;;;10.75;9.25;;;;;29.59;27.13;100883.38;5056380;28;46380;-66
2022/07/19 01:13:39;;;;;;;;;9.50;7.75;;;;;29.51;27.28;100876.16;5074026;28;45375;-66
2022/07/19 01:16:05;;;;;;;;;8.50;8.50;;;;;29.53;27.44;100886.94;5057005;28;45252;-67
2022/07/19 01:18:30;;;;;;;;;7.00;7.00;;;;;29.49;27.60;100882.91;5057394;28;45521;-66
2022/07/19 01:20:57;;;;;;;;;8.00;6.75;;;;;29.35;27.83;100871.84;5057310;28;45728;-63
2022/07/19 01:23:23;;;;;;;;;8.00;6.20;;;;;29.42;28.93;100881.97;5056121;28;45922;-65
2022/07/19 01:25:49;;;;;;;;;12.20;7.60;;;;;29.37;27.97;100880.69;5056542;28;45347;-67
2022/07/19 01:28:14;;;;;;;;;11.75;8.50;;;;;29.30;28.23;100877.09;5057818;28;45565;-67
2022/07/19 01:30:40;;;;;;;;;6.50;6.50;;;;;29.19;29.22;100877.66;5057351;28;46384;-66
2022/07/19 01:33:05;;;;;;;;;12.25;10.00;;;;;29.05;29.64;100865.75;5057032;28;45298;-65
2022/07/19 01:35:30;;;;;;;;;10.00;9.00;;;;;29.05;29.75;100882.19;5047670;28;45568;-66
2022/07/19 01:37:56;;;;;;;;;9.00;8.50;;;;;29.02;30.04;100877.09;5037043;28;45325;-66
2022/07/19 01:40:23;;;;;;;;;10.00;9.50;;;;;28.92;30.14;100860.19;5053189;28;45406;-67
2022/07/19 01:42:49;;;;;;;;;10.40;7.80;;;;;28.97;30.38;100878.75;5036202;28;45466;-66
2022/07/19 01:45:15;;;;;;;;;9.25;9.25;;;;;28.91;30.92;100872.19;5036881;28;45424;-68
2022/07/19 01:47:41;;;;;;;;;8.75;8.75;;;;;28.88;30.25;100868.97;5048361;28;45330;-67
2022/07/19 01:50:08;;;;;;;;;8.60;7.80;;;;;28.81;30.46;100868.91;5048426;28;46038;-67
2022/07/19 01:52:34;;;;;;;;;10.80;9.60;;;;;28.79;30.98;100871.84;5037611;28;45423;-67
2022/07/19 01:54:59;;;;;;;;;12.50;10.75;;;;;28.75;30.85;100867.78;5037520;28;45303;-66
2022/07/19 01:57:25;;;;;;;;;10.50;10.00;;;;;28.71;31.41;100862.94;5037390;28;45418;-65
2022/07/19 01:59:51;;;;;;;;;15.25;11.25;;;;;28.72;31.49;100868.19;5043110;28;45378;-66
2022/07/19 02:02:16;;;;;;;;;9.00;9.00;;;;;28.67;31.39;100861.63;5056605;28;45347;-67
2022/07/19 02:04:41;;;;;;;;;10.00;8.00;;;;;28.67;31.24;100872.59;5056712;28;45682;-65
2022/07/19 02:07:07;;;;;;;;;11.00;10.00;;;;;28.59;31.01;100865.34;5056959;28;45516;-64
2022/07/19 02:09:32;;;;;;;;;8.00;6.50;;;;;28.60;30.84;100866.19;5056552;28;47092;-65
2022/07/19 02:11:58;;;;;;;;;10.75;8.25;;;;;28.58;30.64;100862.81;5055961;28;45244;-63
2022/07/19 02:14:23;;;;;;;;;8.00;7.25;;;;;28.52;31.58;100855.38;5057083;28;45405;-66
2022/07/19 02:16:49;;;;;;;;;8.75;8.75;;;;;28.55;30.71;100869.53;5057486;28;45337;-66
2022/07/19 02:19:14;;;;;;;;;9.00;6.00;;;;;28.46;30.72;100857.03;5056827;28;45311;-65
2022/07/19 02:21:40;;;;;;;;;9.25;8.75;;;;;28.45;30.63;100844.38;5055238;28;45347;-67
2022/07/19 02:24:07;;;;;;;;;8.50;8.50;;;;;28.52;30.11;100864.47;5052248;28;45484;-64
2022/07/19 02:26:33;;;;;;;;;9.75;8.00;;;;;28.51;30.54;100854.53;5039430;28;45418;-64
2022/07/19 02:28:58;;;;;;;;;9.25;8.00;;;;;28.52;29.92;100844.44;5035984;28;45539;-66
2022/07/19 02:31:25;;;;;;;;;9.50;9.25;;;;;28.52;30.26;100848.03;5035538;28;45171;-62
2022/07/19 02:33:50;;;;;;;;;9.80;7.80;;;;;28.50;30.15;100841.91;5038633;28;45201;-66
2022/07/19 02:36:17;;;;;;;;;7.00;6.25;;;;;28.52;30.54;100844.44;5056749;28;45317;-68
2022/07/19 02:38:43;;;;;;;;;7.60;6.80;;;;;28.50;29.85;100840.00;5055999;28;45528;-66
2022/07/19 02:41:08;;;;;;;;;8.50;8.25;;;;;28.48;30.01;100836.63;5055015;28;45383;-66
2022/07/19 02:43:33;;;;;;;;;8.00;8.00;;;;;28.48;30.04;100844.81;5056374;28;45412;-67
2022/07/19 02:45:59;;;;;;;;;7.75;7.75;;;;;28.48;30.14;100835.78;5052910;28;45466;-64
2022/07/19 02:48:24;;;;;;;;;8.50;8.50;;;;;28.46;30.02;100833.25;5048978;28;45536;-67
2022/07/19 02:50:49;;;;;;;;;6.00;6.00;;;;;28.39;30.00;100820.56;5055641;28;45378;-66
2022/07/19 02:53:15;;;;;;;;;7.50;7.50;;;;;28.42;30.66;100820.16;5056338;28;45338;-69
2022/07/19 02:55:40;;;;;;;;;7.00;6.00;;;;;28.43;30.22;100830.91;5056457;28;45403;-68
2022/07/19 02:58:06;;;;;;;;;7.25;7.25;;;;;28.41;29.97;100823.94;5055084;28;46742;-68
2022/07/19 03:00:32;;;;;;;;;6.25;6.25;;;;;28.40;29.95;100833.19;5054918;28;45416;-64
2022/07/19 03:05:43;;;;;;;;;8.00;6.50;;;;;28.27;30.58;100811.19;5056051;28;45580;-65
2022/07/19 03:08:08;;;;;;;;;9.00;9.00;;;;;28.36;30.40;100815.47;5054482;28;45455;-62
2022/07/19 03:10:33;;;;;;;;;7.50;7.00;;;;;28.33;30.21;100829.53;5044520;28;45284;-63
2022/07/19 03:12:59;;;;;;;;;7.75;7.75;;;;;28.32;30.06;100814.16;5035879;28;45352;-63
2022/07/19 03:15:24;;;;;;;;;8.00;7.50;;;;;28.32;30.46;100827.84;5036295;28;45560;-64
2022/07/19 03:17:49;;;;;;;;;5.50;5.50;;;;;28.28;30.46;100804.69;5034720;28;45323;-68
2022/07/19 03:20:16;;;;;;;;;9.25;7.75;;;;;28.33;29.96;100821.34;5035801;28;45248;-66
2022/07/19 03:22:41;;;;;;;;;6.00;6.00;;;;;28.28;30.31;100812.88;5050899;28;45465;-64
2022/07/19 03:25:07;;;;;;;;;6.25;6.25;;;;;28.29;30.16;100825.50;5055938;28;45449;-64
2022/07/19 03:27:33;;;;;;;;;12.00;7.00;;;;;28.25;30.47;100830.47;5055977;28;46108;-68
2022/07/19 03:29:58;;;;;;;;;8.75;7.25;;;;;28.18;30.20;100818.63;5056082;28;45326;-65
2022/07/19 03:32:23;;;;;;;;;9.25;7.00;;;;;28.23;31.11;100823.50;5056394;28;45592;-68
2022/07/19 03:34:49;;;;;;;;;8.50;8.50;;;;;28.25;30.68;100838.69;5042471;28;45482;-64
2022/07/19 03:37:14;;;;;;;;;6.75;5.75;;;;;28.23;30.59;100834.44;5035246;28;45394;-67
2022/07/19 03:39:40;;;;;;;;;7.00;6.00;;;;;28.25;30.54;100837.81;5035175;28;45489;-65
2022/07/19 03:42:05;;;;;;;;;6.00;6.00;;;;;28.21;30.44;100832.75;5037190;28;45311;-63
2022/07/19 03:44:30;;;;;;;;;9.75;7.75;;;;;28.19;30.89;100834.84;5038912;28;45532;-67
2022/07/19 03:46:56;;;;;;;;;7.50;7.25;;;;;28.18;30.17;100829.56;5050121;28;45465;-65
2022/07/19 03:49:21;;;;;;;;;7.00;7.00;;;;;28.11;30.83;100817.72;5058738;28;45420;-64
2022/07/19 03:51:47;;;;;;;;;7.25;7.25;;;;;28.13;30.79;100832.06;5059096;28;45280;-64
2022/07/19 03:54:12;;;;;;;;;8.75;7.25;;;;;28.06;30.52;100821.03;5059057;28;45544;-65
2022/07/19 03:56:37;;;;;;;;;6.75;6.75;;;;;28.03;30.64;100820.59;5059272;28;45417;-67
2022/07/19 03:59:04;;;;;;;;;10.25;9.00;;;;;27.95;30.01;100802.41;5050396;28;45362;-66
2022/07/19 04:01:30;;;;;;;;;8.80;6.80;;;;;28.07;30.39;100824.63;5038442;28;45429;-65
2022/07/19 04:03:55;;;;;;;;;8.00;8.00;;;;;28.06;30.11;100820.19;5038964;28;45228;-63
2022/07/19 04:06:21;;;;;;;;;7.00;7.00;;;;;28.03;30.06;100818.69;5038371;28;45582;-65
2022/07/19 04:08:46;;;;;;;;;7.75;7.75;;;;;28.04;30.67;100828.59;5038920;28;45361;-68
2022/07/19 04:11:11;;;;;;;;;6.25;6.25;;;;;28.03;30.32;100832.38;5050648;28;45218;-68
2022/07/19 04:13:37;;;;;;;;;6.75;5.25;;;;;28.01;30.58;100823.53;5058644;28;45546;-68
2022/07/19 04:16:03;;;;;;;;;6.25;6.00;;;;;28.02;29.55;100827.09;5058074;28;45296;-65
2022/07/19 04:18:29;;;;;;;;;8.40;8.20;;;;;28.00;30.42;100821.84;5058599;28;45310;-67
2022/07/19 04:20:54;;;;;;;;;8.00;8.00;;;;;27.97;29.96;100824.94;5058797;28;45301;-67
2022/07/19 04:23:20;;;;;;;;;8.00;7.00;;;;;27.98;30.29;100823.88;5046750;28;45567;-63
2022/07/19 04:25:45;;;;;;;;;10.50;7.75;;;;;27.83;30.40;100798.50;5038347;28;45463;-64
2022/07/19 04:28:10;;;;;;;;;10.75;8.00;;;;;27.94;30.04;100822.59;5037940;28;45840;-64
2022/07/19 04:30:36;;;;;;;;;9.00;8.00;;;;;27.88;29.65;100817.91;5038215;28;45490;-67
2022/07/19 04:33:01;;;;;;;;;8.00;8.00;;;;;27.91;30.04;100817.53;5038100;28;45353;-64
2022/07/19 04:35:27;;;;;;;;;6.75;6.75;;;;;27.85;30.30;100812.81;5047933;28;46136;-64
2022/07/19 04:37:52;;;;;;;;;8.75;7.00;;;;;27.88;30.14;100818.75;5041301;28;45537;-63
2022/07/19 04:40:18;;;;;;;;;8.25;6.75;;;;;27.88;30.20;100813.28;5038219;28;45401;-67
2022/07/19 04:42:43;;;;;;;;;6.50;6.50;;;;;27.87;30.47;100819.81;5038071;28;45612;-65
2022/07/19 04:45:09;;;;;;;;;9.75;6.00;;;;;27.87;30.67;100821.69;5037383;28;45401;-67
2022/07/19 04:47:34;;;;;;;;;8.50;8.50;;;;;27.87;30.08;100814.34;5038041;28;45276;-68
2022/07/19 04:50:00;;;;;;;;;8.00;8.00;;;;;27.86;30.84;100809.88;5038447;28;45360;-67
2022/07/19 04:52:26;;;;;;;;;6.75;6.75;;;;;27.83;31.12;100809.44;5037496;28;45600;-63
2022/07/19 04:54:52;;;;;;;;;8.00;7.00;;;;;27.81;30.49;100806.88;5037330;28;46246;-65
2022/07/19 04:57:17;;;;;;;;;5.50;5.00;;;;;27.87;30.61;100810.75;5057705;28;45329;-68
2022/07/19 04:59:42;;;;;;;;;10.50;7.75;;;;;27.84;30.16;100808.38;5049417;28;45573;-65
2022/07/19 05:02:08;;;;;;;;;6.50;6.25;;;;;27.80;30.32;100798.88;5038000;28;45450;-66
2022/07/19 05:04:33;;;;;;;;;12.25;9.50;;;;;27.87;30.38;100802.56;5036452;28;45552;-66
2022/07/19 05:06:59;;;;;;;;;8.00;6.25;;;;;27.83;30.50;100810.28;5038018;28;45346;-68
2022/07/19 05:09:25;;;;;;;;;9.00;7.75;;;;;27.85;30.41;100797.25;5037737;28;45329;-68
2022/07/19 05:11:51;;;;;;;;;7.25;7.25;;;;;27.86;30.80;100803.56;5038419;28;45416;-65
2022/07/19 05:14:17;;;;;;;;;11.50;6.50;;;;;27.78;30.50;100785.41;5037331;28;46288;-63
2022/07/19 05:16:42;;;;;;;;;11.00;7.75;;;;;27.88;30.61;100801.50;5037599;28;45856;-63
2022/07/19 05:19:08;;;;;;;;;7.75;6.75;;;;;27.86;30.42;100796.22;5037597;28;45668;-65
2022/07/19 05:21:33;;;;;;;;;9.25;8.00;;;;;27.90;30.50;100810.34;5037531;28;45487;-65
2022/07/19 05:23:58;;;;;;;;;8.00;8.00;;;;;27.88;30.28;100802.34;5048136;28;47172;-64
2022/07/19 05:26:24;;;;;;;;;8.50;8.50;;;;;27.90;30.50;100793.97;5056463;28;45320;-65
2022/07/19 05:28:49;;;;;;;;;9.25;9.25;;;;;27.95;31.11;100802.41;5057492;28;45165;-65
2022/07/19 05:31:15;;;;;;;;;11.25;9.00;;;;;27.95;30.33;100799.69;5056255;28;45302;-65
2022/07/19 05:33:41;;;;;;;;;13.00;10.00;;;;;27.92;31.56;100803.66;5057359;28;45308;-64
2022/07/19 05:36:08;;;;;;;;;9.50;9.50;;;;;27.99;30.99;100808.31;5043907;28;45259;-66
2022/07/19 05:38:34;;;;;;;;;10.00;8.20;;;;;27.96;30.90;100798.63;5037528;28;45391;-66
2022/07/19 05:41:00;;;;;;;;;9.00;7.50;;;;;28.00;30.95;100797.22;5037802;28;45592;-65
2022/07/19 05:43:26;;;;;;;;;9.75;8.00;;;;;27.98;30.12;100796.53;5036451;28;45361;-66
2022/07/19 05:45:51;;;;;;;;;8.00;8.00;;;;;27.99;30.89;100797.41;5052184;28;45481;-64
2022/07/19 05:48:17;;;;;;;;;12.25;11.50;;;;;28.01;31.22;100801.66;5047375;28;45488;-64
2022/07/19 05:50:42;;;;;;;;;12.00;9.00;;;;;28.04;30.87;100804.00;5053415;28;45489;-65
2022/07/19 05:53:07;;;;;;;;;9.00;7.00;;;;;28.02;31.33;100786.09;5034517;28;47928;-66
2022/07/19 05:55:33;;;;;;;;;11.50;9.00;;;;;28.04;30.53;100790.31;5041530;28;45298;-65
2022/07/19 05:57:58;;;;;;;;;8.00;8.00;;;;;28.09;30.85;100798.78;5057115;28;45773;-63
2022/07/19 06:00:24;;;;;;;;;11.00;10.00;;;;;28.09;30.84;100785.09;5054981;28;45254;-64
2022/07/19 06:02:49;;;;;;;;;14.00;9.75;;;;;28.14;30.89;100790.00;5056874;28;45773;-63
2022/07/19 06:05:14;;;;;;;;;5.50;5.50;;;;;28.16;30.72;100791.50;5056410;28;45195;-64
2022/07/19 06:07:40;;;;;;;;;9.50;9.25;;;;;28.16;30.41;100794.22;5055537;28;45251;-66
2022/07/19 06:10:06;;;;;;;;;9.75;8.00;;;;;28.10;30.77;100778.59;5050505;28;45667;-66
2022/07/19 06:12:31;;;;;;;;;11.00;8.50;;;;;28.21;31.19;100791.75;5036828;28;46354;-64
2022/07/19 06:14:57;;;;;;;;;7.00;6.50;;;;;28.23;31.08;100794.28;5038737;28;45249;-67
2022/07/19 06:17:22;;;;;;;;;9.25;8.00;;;;;28.27;31.43;100783.84;5056619;28;45215;-65
2022/07/19 06:19:47;;;;;;;;;8.75;6.75;;;;;28.26;30.52;100782.09;5056689;28;45229;-67
2022/07/19 06:22:13;;;;;;;;;9.50;9.50;;;;;28.28;30.72;100780.91;5056369;28;45312;-67
2022/07/19 06:24:38;;;;;;;;;10.00;8.50;;;;;28.28;30.11;100785.53;5055914;28;45348;-64
2022/07/19 06:27:04;;;;;;;;;10.00;8.75;;;;;28.32;30.35;100778.63;5050880;28;45437;-67
2022/07/19 06:29:29;;;;;;;;;11.00;8.00;;;;;28.36;30.81;100775.28;5036198;28;45670;-66
2022/07/19 06:31:54;;;;;;;;;9.50;9.25;;;;;28.39;30.53;100771.31;5036018;28;45403;-66
2022/07/19 06:34:20;;;;;;;;;13.25;11.75;;;;;28.41;30.66;100770.06;5034583;28;45343;-65
2022/07/19 06:36:46;;;;;;;;;13.25;11.50;;;;;28.48;30.50;100764.63;5048241;28;45525;-65
2022/07/19 06:39:11;;;;;;;;;12.50;12.00;;;;;28.50;30.30;100768.88;5050741;28;45597;-66
2022/07/19 06:41:36;;;;;;;;;13.25;10.50;;;;;28.54;30.81;100763.88;5036281;28;46157;-65
2022/07/19 06:44:02;;;;;;;;;10.00;9.00;;;;;28.52;30.25;100755.00;5036094;28;45319;-66
2022/07/19 06:46:27;;;;;;;;;13.75;9.00;;;;;28.53;30.42;100745.75;5036321;28;45367;-66
2022/07/19 06:48:53;;;;;;;;;15.50;13.50;;;;;28.64;30.94;100755.28;5035673;28;45339;-67
2022/07/19 06:51:18;;;;;;;;;11.75;11.75;;;;;28.72;30.50;100750.50;5035579;28;45996;-65
2022/07/19 06:53:43;;;;;;;;;10.25;10.00;;;;;28.76;30.68;100751.78;5035447;28;45361;-67
2022/07/19 06:56:09;;;;;;;;;9.25;9.25;;;;;28.81;30.20;100747.63;5046207;28;45276;-63
2022/07/19 06:58:34;;;;;;;;;11.75;11.75;;;;;28.84;30.66;100748.06;5054192;28;45591;-62
2022/07/19 07:01:00;;;;;;;;;10.25;8.75;;;;;28.93;29.92;100752.38;5042326;28;45399;-63
2022/07/19 07:03:26;;;;;;;;;12.75;10.75;;;;;28.95;29.73;100743.94;5035601;28;45233;-65
2022/07/19 07:05:52;;;;;;;;;7.75;7.50;;;;;29.03;30.21;100752.81;5035720;28;45251;-63
2022/07/19 07:08:17;;;;;;;;;9.00;9.00;;;;;29.11;30.82;100759.19;5035937;28;45477;-65
2022/07/19 07:10:42;;;;;;;;;14.25;13.00;;;;;29.16;29.75;100760.25;5041137;28;47209;-64
2022/07/19 07:13:08;;;;;;;;;11.00;10.50;;;;;29.21;30.13;100759.66;5056051;28;45308;-65
2022/07/19 07:15:33;;;;;;;;;12.00;9.50;;;;;29.24;29.66;100748.28;5055794;28;45231;-62
2022/07/19 07:17:59;;;;;;;;;12.50;11.25;;;;;29.28;30.08;100753.16;5059369;28;45170;-64
2022/07/19 07:20:25;;;;;;;;;9.50;9.50;;;;;29.32;30.15;100740.75;5059336;28;46305;-62
2022/07/19 07:22:50;;;;;;;;;10.75;9.50;;;;;29.33;30.10;100747.91;5058330;28;45315;-66
2022/07/19 07:25:15;;;;;;;;;13.50;9.25;;;;;29.35;29.74;100740.34;5057889;28;45414;-63
2022/07/19 07:27:41;;;;;;;;;11.75;10.25;;;;;29.45;30.23;100750.06;5059331;28;45384;-65
2022/07/19 07:30:07;;;;;;;;;10.00;10.00;;;;;29.45;30.29;100747.34;5059153;28;45497;-69
2022/07/19 07:32:32;;;;;;;;;10.60;10.60;;;;;29.49;30.11;100734.94;5059162;28;45425;-65
2022/07/19 07:34:58;;;;;;;;;10.00;10.00;;;;;29.54;29.59;100743.38;5052010;28;45382;-66
2022/07/19 07:37:23;;;;;;;;;16.50;12.75;;;;;29.55;30.04;100723.97;5039555;28;45490;-63
2022/07/19 07:39:49;;;;;;;;;10.00;10.00;;;;;29.61;30.01;100725.06;5038630;28;46036;-65
2022/07/19 07:42:14;;;;;;;;;3.00;3.00;;;;;29.65;30.04;100726.31;5038839;28;45422;-65
2022/07/19 07:44:40;;;;;;;;;12.25;12.25;;;;;29.66;29.82;100719.78;5039082;28;45413;-67
2022/07/19 07:47:08;;;;;;;;;14.50;11.25;;;;;29.74;29.88;100719.59;5046774;28;45589;-67
2022/07/19 07:49:35;;;;;;;;;13.50;11.75;;;;;29.76;29.59;100702.94;5058981;28;46069;-65
2022/07/19 07:52:00;;;;;;;;;12.00;12.00;;;;;29.86;30.04;100715.19;5057560;28;45433;-65
2022/07/19 07:54:25;;;;;;;;;13.25;13.25;;;;;29.83;30.69;100693.69;5059023;28;45484;-65
2022/07/19 07:56:51;;;;;;;;;9.50;9.50;;;;;29.94;30.64;100706.75;5057631;28;45393;-63
2022/07/19 07:59:16;;;;;;;;;14.75;14.00;;;;;29.97;30.11;100697.28;5057410;28;45477;-64
2022/07/19 08:01:44;;;;;;;;;11.50;11.50;;;;;30.11;29.56;100709.13;5057859;28;45725;-63
2022/07/19 08:04:09;;;;;;;;;12.20;11.40;;;;;30.17;29.28;100711.88;5059103;28;45428;-63
2022/07/19 08:06:35;;;;;;;;;16.00;12.50;;;;;30.19;30.11;100703.41;5058790;28;45500;-63
2022/07/19 08:09:00;;;;;;;;;8.00;8.00;;;;;30.29;29.46;100698.34;5058465;28;46278;-62
2022/07/19 08:11:26;;;;;;;;;11.75;11.75;;;;;30.38;29.67;100704.47;5058528;28;45204;-63
2022/07/19 08:13:51;;;;;;;;;17.25;14.25;;;;;30.37;28.90;100689.91;5059030;28;45386;-65
2022/07/19 08:16:16;;;;;;;;;14.50;9.50;;;;;30.43;28.11;100682.72;5057784;28;45292;-63
2022/07/19 08:18:42;;;;;;;;;12.75;11.50;;;;;30.59;27.98;100686.91;5057569;28;46706;-63
2022/07/19 08:21:08;;;;;;;;;17.00;12.00;;;;;30.67;28.62;100678.47;5059783;28;45373;-62
2022/07/19 08:23:33;;;;;;;;;10.00;8.50;;;;;30.75;28.25;100676.34;5058249;28;45208;-62
2022/07/19 08:25:59;;;;;;;;;11.50;9.75;;;;;30.88;27.40;100672.72;5050941;28;45219;-67
2022/07/19 08:28:24;;;;;;;;;10.75;9.75;;;;;31.17;27.36;100675.97;5036404;28;45436;-65
2022/07/19 08:30:50;;;;;;;;;9.75;9.75;;;;;31.56;27.52;100681.28;5037898;28;45543;-64
2022/07/19 08:33:15;;;;;;;;;11.75;11.75;;;;;32.07;27.38;100674.78;5038304;28;45492;-63
2022/07/19 08:35:40;;;;;;;;;12.25;12.25;;;;;32.53;26.99;100668.84;5051609;28;45303;-63
2022/07/19 08:38:06;;;;;;;;;10.50;10.25;;;;;33.03;26.69;100670.63;5057914;28;45517;-64
2022/07/19 08:40:34;;;;;;;;;10.50;10.50;;;;;33.51;25.69;100665.13;5057724;28;45298;-62
2022/07/19 08:43:03;;;;;;;;;11.80;11.80;;;;;33.85;24.52;100658.00;5056422;28;46010;-61
2022/07/19 08:45:30;;;;;;;;;12.20;8.40;;;;;34.26;24.82;100656.28;5057357;28;45358;-65
2022/07/19 08:47:57;;;;;;;;;14.80;12.40;;;;;34.70;24.75;100651.22;5052084;28;45520;-65
2022/07/19 08:50:23;;;;;;;;;11.60;11.40;;;;;35.15;24.07;100660.47;5037795;28;45361;-64
2022/07/19 08:52:49;;;;;;;;;14.00;10.80;;;;;35.51;22.70;100647.34;5037731;28;45323;-67
2022/07/19 08:55:17;;;;;;;;;12.00;11.00;;;;;35.96;23.09;100660.34;5048946;28;45458;-66
2022/07/19 08:58:00;;;;;;;;;11.20;11.20;;;;;36.38;21.19;100659.91;5049603;28;45354;-65
2022/07/19 09:00:28;;;;;;;;;13.20;11.80;;;;;36.74;21.08;100652.94;5037337;28;45288;-64
2022/07/19 09:03:04;;;;;;;;;12.20;12.20;;;;;37.08;21.24;100656.44;5037560;28;45446;-67
2022/07/19 09:05:30;;;;;;;;;7.00;7.00;;;;;37.32;21.03;100662.56;5038123;28;45272;-63
2022/07/19 09:08:02;;;;;;;;;8.80;8.40;;;;;37.55;19.95;100644.75;5037205;28;46400;-64
2022/07/19 09:10:27;;;;;;;;;10.80;10.20;;;;;37.81;21.03;100643.09;5037314;28;45335;-66
2022/07/19 09:12:59;;;;;;;;;10.00;10.00;;;;;38.13;19.68;100634.72;5037319;28;45408;-65
2022/07/19 09:15:40;;;;;;;;;11.60;10.60;;;;;38.42;19.22;100641.63;5037732;28;45350;-64
2022/07/19 09:18:19;;;;;;;;;7.80;7.80;;;;;38.63;18.24;100640.59;5068840;27;46452;-66
2022/07/19 09:20:46;;;;;;;;;12.60;10.60;;;;;38.94;18.40;100640.78;5057924;28;45418;-65
2022/07/19 09:23:12;;;;;;;;;10.80;9.40;;;;;39.21;17.90;100638.66;5057892;28;45294;-64
2022/07/19 09:26:01;;;;;;;;;10.00;8.20;;;;;39.46;18.66;100634.25;5056146;28;45856;-64
2022/07/19 09:28:31;;;;;;;;;8.60;8.60;;;;;39.70;17.92;100626.19;5039288;28;45440;-63
2022/07/19 09:30:59;;;;;;;;;11.60;7.80;;;;;39.88;18.00;100622.88;5049264;28;45351;-67
2022/07/19 09:33:27;;;;;;;;;9.00;9.00;;;;;40.18;17.14;100622.00;5057264;28;45361;-66
2022/07/19 09:36:00;;;;;;;;;10.20;9.00;;;;;40.48;17.17;100621.09;5057193;27;45350;-66
2022/07/19 09:38:27;;;;;;;;;9.60;9.40;;;;;40.71;16.77;100624.38;5056289;28;46187;-67
2022/07/19 09:41:10;;;;;;;;;7.00;7.00;;;;;40.82;15.54;100620.44;5056060;28;45556;-64
2022/07/19 09:44:03;;;;;;;;;9.40;8.20;;;;;40.99;15.85;100611.72;5057014;28;45563;-65
2022/07/19 09:46:32;;;;;;;;;8.80;8.80;;;;;41.24;16.02;100612.38;5056639;28;45625;-63
2022/07/19 09:49:08;;;;;;;;;8.00;8.00;;;;;41.58;15.50;100603.25;5056751;28;46265;-64
2022/07/19 09:51:37;;;;;;;;;8.40;8.40;;;;;41.75;15.02;100606.47;5046852;28;45473;-64
2022/07/19 09:54:04;;;;;;;;;8.80;6.80;;;;;42.02;16.13;100599.50;5052240;28;45854;-67
2022/07/19 09:56:30;;;;;;;;;10.40;9.40;;;;;42.24;15.55;100596.25;5049115;28;45526;-65
2022/07/19 09:58:58;;;;;;;;;5.80;4.60;;;;;42.42;15.02;100592.66;5055435;28;45437;-64
2022/07/19 10:01:24;;;;;;;;;9.60;8.40;;;;;42.55;14.02;100593.94;5056151;28;45398;-63
2022/07/19 10:03:54;;;;;;;;;7.20;7.20;;;;;42.60;13.24;100586.34;5054101;28;45489;-63
2022/07/19 10:06:20;;;;;;;;;10.00;8.20;;;;;42.56;13.25;100587.22;5039982;28;45487;-65
2022/07/19 10:08:46;;;;;;;;;8.00;7.40;;;;;42.48;13.69;100588.69;5035427;28;45731;-63
2022/07/19 10:11:11;;;;;;;;;8.00;8.00;;;;;42.49;14.92;100576.38;5036501;28;45554;-65
2022/07/19 10:13:37;;;;;;;;;9.00;7.25;;;;;42.65;14.25;100580.66;5041857;28;45358;-65
2022/07/19 10:16:07;;;;;;;;;7.75;7.75;;;;;42.59;13.84;100570.69;5055372;28;45339;-64
2022/07/19 10:18:44;;;;;;;;;10.20;8.60;;;;;42.50;13.40;100568.81;5056179;28;46957;-64
2022/07/19 10:21:10;;;;;;;;;9.60;9.60;;;;;42.55;15.65;100563.19;5056503;27;45343;-65
2022/07/19 10:23:35;;;;;;;;;9.00;9.00;;;;;42.38;14.73;100546.88;5056796;28;45726;-64
2022/07/19 10:26:01;;;;;;;;;9.75;8.75;;;;;42.18;13.42;100552.69;5055413;28;45539;-65
2022/07/19 10:28:28;;;;;;;;;6.50;6.50;;;;;42.02;13.79;100544.47;5056136;28;45430;-64
2022/07/19 10:30:54;;;;;;;;;12.40;8.00;;;;;41.87;13.38;100543.81;5054680;28;45489;-64
2022/07/19 10:33:32;;;;;;;;;9.60;7.40;;;;;41.43;14.31;100545.59;5055194;28;45423;-64
2022/07/19 10:36:18;;;;;;;;;7.20;7.20;;;;;41.12;13.76;100535.75;5056472;28;45254;-65
2022/07/19 10:39:17;;;;;;;;;7.40;7.40;;;;;40.67;14.70;100534.91;5055192;28;46048;-66
2022/07/19 10:42:10;;;;;;;;;8.60;8.60;;;;;40.27;14.10;100531.16;5043009;28;45545;-66
2022/07/19 10:44:54;;;;;;;;;8.60;8.60;;;;;39.94;14.08;100529.81;5036294;28;45590;-67
2022/07/19 10:47:19;;;;;;;;;9.00;8.80;;;;;39.61;15.05;100516.53;5036329;28;45213;-64
2022/07/19 10:49:47;;;;;;;;;14.00;9.50;;;;;39.40;16.18;100518.47;5056275;28;46175;-66
2022/07/19 10:52:28;;;;;;;;;6.80;6.80;;;;;39.09;15.13;100514.81;5054644;28;45602;-66
2022/07/19 10:55:18;;;;;;;;;7.20;7.00;;;;;38.93;15.37;100522.28;5055924;28;45334;-67
2022/07/19 10:57:47;;;;;;;;;8.40;8.40;;;;;38.77;15.25;100513.09;5055955;28;45348;-65
2022/07/19 11:00:25;;;;;;;;;8.60;8.40;;;;;38.63;15.98;100507.19;5055897;28;45714;-64
2022/07/19 11:02:53;;;;;;;;;10.40;9.20;;;;;38.50;15.77;100507.69;5043543;28;45320;-64
2022/07/19 11:05:26;;;;;;;;;7.80;7.40;;;;;38.35;15.86;100500.16;5036310;28;45511;-65
2022/07/19 11:07:54;;;;;;;;;7.80;7.40;;;;;38.28;15.55;100502.34;5036418;28;45294;-64
2022/07/19 11:10:30;;;;;;;;;15.40;10.00;;;;;38.20;15.76;100494.53;5051575;28;45546;-64
2022/07/19 11:12:58;;;;;;;;;10.00;9.40;;;;;38.16;15.82;100500.88;5035649;28;45332;-65
2022/07/19 11:15:27;;;;;;;;;11.80;8.40;;;;;38.10;15.42;100490.84;5050490;28;45437;-67
2022/07/19 11:17:54;;;;;;;;;8.20;8.20;;;;;38.02;16.35;100486.63;5046112;28;45474;-64
2022/07/19 11:20:29;;;;;;;;;10.80;10.80;;;;;37.99;15.90;100478.84;5051254;28;46574;-67